Terminal Aerodrome Forecast
Issued by NWS

Home | Current Version | Previous Version | Text Only | Print | Product List | Glossary On
Versions: 1 2 3 4 5 6 7 8 9 10 11 12 13 14 15
000
FTUS45 KCYS 191700
TAFRWL
TAF
KRWL 191721Z 1918/2018 25011KT P6SM SCT070
     FM192100 24013G20KT P6SM VCSH BKN060
     FM201000 25008KT P6SM SCT060=

USA.gov is the U.S. government's official web portal to all federal, state and local government web resources and services.